Time;durP1;ratioP1;P1;durP2;ratioP2;P2;SDS_P1;SDS_P2;PMS_P1;PMS_P2;Temp;Humidity;BMP_temperature;BMP_pressure;BME280_temperature;BME280_humidity;BME280_pressure;Samples;Min_cycle;Max_cycle;Signal;HPM_P1;HPM_P2
2022/01/10 00:01:52;;;;;;;11.25;4.50;;;;;;;2.28;100.00;99973.19;4980362;28;19929;-68
2022/01/10 00:04:36;;;;;;;11.90;5.40;;;;;;;2.25;100.00;99973.41;4967083;28;20053;-65
2022/01/10 00:07:20;;;;;;;;;;;;;;;2.30;100.00;99973.97;4980766;28;20054;-68
2022/01/10 00:10:04;;;;;;;8.30;3.63;;;;;;;2.31;100.00;99980.91;4995221;28;19992;-66
2022/01/10 00:12:48;;;;;;;9.45;5.35;;;;;;;2.27;100.00;99989.94;4994779;28;20177;-69
2022/01/10 00:15:33;;;;;;;10.70;5.18;;;;;;;2.24;100.00;99994.53;4995077;28;20529;-68
2022/01/10 00:18:16;;;;;;;13.23;6.30;;;;;;;2.15;100.00;99997.75;4995021;28;20470;-66
2022/01/10 00:21:00;;;;;;;11.90;5.95;;;;;;;2.15;100.00;99995.97;4966768;28;20137;-68
2022/01/10 00:23:44;;;;;;;11.80;6.20;;;;;;;2.04;100.00;99998.44;4994799;28;20390;-68
2022/01/10 00:26:28;;;;;;;12.43;7.13;;;;;;;1.97;100.00;99999.78;4966548;28;20502;-65
2022/01/10 00:29:12;;;;;;;12.40;6.15;;;;;;;1.96;100.00;99998.09;4966464;28;20525;-68
2022/01/10 00:31:59;;;;;;;8.80;5.45;;;;;;;1.92;100.00;100006.25;4979936;28;20109;-66
2022/01/10 00:34:44;;;;;;;9.85;5.75;;;;;;;1.89;100.00;100009.94;4953759;28;20053;-68
2022/01/10 00:37:27;;;;;;;10.50;5.45;;;;;;;1.84;100.00;100017.25;4966381;28;20152;-68
2022/01/10 00:40:13;;;;;;;;;;;;;;;1.77;100.00;100013.31;4994871;28;20132;-67
2022/01/10 00:42:57;;;;;;;13.55;6.95;;;;;;;1.71;100.00;100016.34;4979807;28;19964;-67
2022/01/10 00:45:41;;;;;;;16.92;8.00;;;;;;;1.65;100.00;100016.72;4994606;28;20166;-65
2022/01/10 00:48:25;;;;;;;11.55;6.65;;;;;;;1.66;100.00;100023.66;4994268;28;20108;-67
2022/01/10 00:51:09;;;;;;;;;;;;;;;1.76;100.00;100023.94;4980087;28;20057;-67
2022/01/10 00:53:53;;;;;;;10.27;5.07;;;;;;;1.79;100.00;100035.13;4995743;28;19960;-68
2022/01/10 00:56:37;;;;;;;;;;;;;;;1.78;100.00;100028.16;4979975;28;20053;-68
2022/01/10 00:59:21;;;;;;;11.02;6.20;;;;;;;1.72;100.00;100038.19;4966099;28;19937;-68
2022/01/10 01:02:05;;;;;;;10.75;6.47;;;;;;;1.75;100.00;100043.28;4994160;28;20072;-66
2022/01/10 01:04:51;;;;;;;;;;;;;;;1.73;100.00;100053.88;4994671;28;20088;-64
2022/01/10 01:07:37;;;;;;;10.13;5.22;;;;;;;1.78;100.00;100049.16;4979575;28;20028;-66
2022/01/10 01:13:51;;;;;;;14.05;5.93;;;;;;;1.77;100.00;100052.75;4994016;28;20469;-69
2022/01/10 01:25:06;;;;;;;10.45;6.25;;;;;;;1.88;100.00;100073.13;4993785;28;20113;-69
2022/01/10 01:27:53;;;;;;;13.35;5.80;;;;;;;1.90;100.00;100073.88;4965377;28;20130;-65
2022/01/10 01:30:37;;;;;;;13.63;6.03;;;;;;;1.89;100.00;100072.19;4978734;28;20049;-68
2022/01/10 01:33:21;;;;;;;14.20;6.07;;;;;;;1.87;100.00;100074.88;4978568;28;20069;-66
2022/01/10 01:36:05;;;;;;;9.35;5.55;;;;;;;1.91;100.00;100092.19;4993654;28;20131;-68
2022/01/10 01:38:50;;;;;;;9.52;6.43;;;;;;;1.79;100.00;100094.69;4993958;28;20053;-69
2022/01/10 01:41:35;;;;;;;10.32;5.68;;;;;;;1.76;100.00;100097.53;4978870;28;20045;-68
2022/01/10 01:44:19;;;;;;;12.70;6.13;;;;;;;1.73;100.00;100098.56;4993682;28;20053;-67
2022/01/10 01:47:03;;;;;;;12.10;7.47;;;;;;;1.70;100.00;100109.25;4985663;23;20133;-66
2022/01/10 01:49:47;;;;;;;14.40;6.88;;;;;;;1.73;100.00;100103.81;4965413;28;20052;-69
2022/01/10 01:52:30;;;;;;;;;;;;;;;1.78;100.00;100117.50;4979004;28;20108;-68
2022/01/10 01:55:14;;;;;;;12.65;6.88;;;;;;;1.75;100.00;100120.31;4993351;28;19932;-68
2022/01/10 01:57:58;;;;;;;11.13;6.60;;;;;;;1.76;100.00;100123.81;4993299;28;20442;-68
2022/01/10 02:00:42;;;;;;;12.43;6.85;;;;;;;1.76;100.00;100124.63;4993233;28;20089;-64
2022/01/10 02:03:26;;;;;;;;;;;;;;;1.82;100.00;100128.66;4978978;28;20426;-65
2022/01/10 02:06:10;;;;;;;13.93;6.82;;;;;;;1.84;100.00;100130.28;4978662;28;20404;-68
2022/01/10 02:08:54;;;;;;;12.48;6.53;;;;;;;1.78;100.00;100128.00;4978553;28;20136;-68
2022/01/10 02:11:38;;;;;;;12.40;6.25;;;;;;;1.72;100.00;100133.66;4978475;28;20042;-66
2022/01/10 02:14:22;;;;;;;;;;;;;;;1.76;100.00;100129.06;4965385;28;20081;-65
2022/01/10 02:17:06;;;;;;;13.52;6.32;;;;;;;1.74;100.00;100137.03;4978562;28;20388;-68
2022/01/10 02:20:04;;;;;;;10.73;6.15;;;;;;;1.78;100.00;100143.78;4978441;28;20057;-68
2022/01/10 02:22:47;;;;;;;10.25;5.80;;;;;;;1.74;100.00;100141.44;4978495;28;20533;-68
2022/01/10 02:25:31;;;;;;;;;;;;;;;1.74;100.00;100146.69;4978789;28;20066;-67
2022/01/10 02:28:15;;;;;;;9.30;5.63;;;;;;;1.72;100.00;100149.41;4993186;28;20408;-68
2022/01/10 02:30:59;;;;;;;10.57;5.47;;;;;;;1.75;100.00;100156.28;4993135;28;20116;-68
2022/01/10 02:33:46;;;;;;;11.57;5.13;;;;;;;1.84;100.00;100161.81;4993298;28;20379;-68
2022/01/10 02:36:30;;;;;;;12.18;5.15;;;;;;;1.87;100.00;100166.88;4994093;28;20053;-67
2022/01/10 02:39:19;;;;;;;10.80;5.53;;;;;;;1.85;100.00;100168.75;4982329;28;20138;-69
2022/01/10 02:42:03;;;;;;;12.75;5.85;;;;;;;1.86;100.00;100170.44;4982741;28;20101;-68
2022/01/10 02:44:47;;;;;;;;;;;;;;;1.88;100.00;100186.97;4968896;28;20101;-68
2022/01/10 02:47:31;;;;;;;8.35;4.65;;;;;;;1.90;100.00;100179.84;4996601;28;19925;-68
2022/01/10 02:50:16;;;;;;;;;;;;;;;1.93;100.00;100178.81;4982515;28;20106;-68
2022/01/10 02:53:00;;;;;;;9.55;5.40;;;;;;;1.97;100.00;100178.53;4982101;28;19980;-66
2022/01/10 02:55:44;;;;;;;7.53;4.80;;;;;;;2.00;100.00;100175.75;4968066;28;20133;-68
2022/01/10 02:58:27;;;;;;;7.93;5.00;;;;;;;1.96;100.00;100184.72;4967758;28;20138;-67
2022/01/10 03:01:11;;;;;;;;;;;;;;;1.97;100.00;100202.19;4996829;28;20049;-68
2022/01/10 03:03:55;;;;;;;11.38;7.50;;;;;;;1.97;100.00;100202.19;4981666;28;20397;-68
2022/01/10 03:06:39;;;;;;;13.20;5.90;;;;;;;1.89;100.00;100208.84;4996436;28;20057;-65
2022/01/10 03:09:23;;;;;;;;;;;;;;;1.97;100.00;100207.44;4968132;28;20525;-68
2022/01/10 03:12:09;;;;;;;15.40;6.82;;;;;;;1.96;100.00;100211.03;4996820;28;20013;-68
2022/01/10 03:14:53;;;;;;;16.95;6.95;;;;;;;1.83;100.00;100215.31;4996800;28;20061;-68
2022/01/10 03:17:38;;;;;;;;;;;;;;;1.81;100.00;100222.47;4982628;28;20064;-68
2022/01/10 03:20:23;;;;;;;12.98;6.30;;;;;;;1.78;100.00;100230.50;4982020;28;19968;-68
2022/01/10 03:23:07;;;;;;;14.02;8.05;;;;;;;1.69;100.00;100231.06;4996957;28;20066;-69
2022/01/10 03:25:51;;;;;;;10.05;5.85;;;;;;;1.70;100.00;100234.53;4996307;28;20120;-64
2022/01/10 03:28:35;;;;;;;;;;;;;;;1.74;100.00;100236.88;4996335;28;20053;-64
2022/01/10 03:31:19;;;;;;;13.73;5.88;;;;;;;1.73;100.00;100245.72;4981143;28;20329;-64
2022/01/10 03:34:05;;;;;;;11.43;5.68;;;;;;;1.76;100.00;100247.31;4967689;28;20467;-68
2022/01/10 03:36:49;;;;;;;10.43;6.00;;;;;;;1.83;100.00;100249.50;4967541;28;20521;-64
2022/01/10 03:39:33;;;;;;;;;;;;;;;1.92;100.00;100256.84;4981394;28;20105;-69
2022/01/10 03:42:20;;;;;;;13.60;6.35;;;;;;;1.89;100.00;100262.28;4967341;28;20056;-66
2022/01/10 03:45:05;;;;;;;16.65;7.88;;;;;;;1.82;100.00;100260.94;4967505;28;20053;-68
2022/01/10 03:47:49;;;;;;;10.98;6.75;;;;;;;1.83;100.00;100261.78;4995454;28;20068;-65
2022/01/10 03:50:33;;;;;;;17.20;6.40;;;;;;;1.81;100.00;100269.78;4967354;28;20053;-67
2022/01/10 03:53:17;;;;;;;;;;;;;;;1.69;100.00;100269.63;4995994;28;20049;-68
2022/01/10 03:56:01;;;;;;;14.73;7.80;;;;;;;1.75;100.00;100275.38;4980976;28;19937;-68
2022/01/10 03:58:44;;;;;;;;;;;;;;;1.89;100.00;100271.94;4995862;28;20425;-66
2022/01/10 04:01:28;;;;;;;12.13;6.32;;;;;;;1.95;100.00;100275.06;4995728;28;20286;-69
2022/01/10 04:04:13;;;;;;;10.63;5.90;;;;;;;2.00;100.00;100288.78;4980570;28;20182;-65
2022/01/10 04:06:57;;;;;;;11.48;6.78;;;;;;;1.97;100.00;100291.56;4995168;28;20145;-68
2022/01/10 04:09:41;;;;;;;;;;;;;;;2.08;100.00;100288.31;4981118;28;20233;-66
2022/01/10 04:12:25;;;;;;;10.80;6.53;;;;;;;2.10;100.00;100286.44;4995320;28;19920;-68
2022/01/10 04:15:09;;;;;;;12.18;6.35;;;;;;;2.10;100.00;100292.56;4995165;28;20425;-67
2022/01/10 04:17:56;;;;;;;12.85;6.22;;;;;;;2.13;100.00;100295.00;4980494;28;20105;-68
2022/01/10 04:20:41;;;;;;;12.85;6.70;;;;;;;2.11;100.00;100307.41;4994832;28;20041;-69
2022/01/10 04:23:26;;;;;;;10.65;6.25;;;;;;;2.13;100.00;100297.63;4994879;28;20061;-68
2022/01/10 04:26:10;;;;;;;9.85;5.97;;;;;;;2.15;100.00;100306.28;4966548;28;20081;-69
2022/01/10 04:28:54;;;;;;;;;;;;;;;2.08;100.00;100319.88;4995722;28;20137;-63
2022/01/10 04:31:38;;;;;;;10.43;5.90;;;;;;;2.14;100.00;100308.97;4994855;28;20004;-66
2022/01/10 04:34:22;;;;;;;10.43;5.82;;;;;;;2.11;100.00;100312.66;4980115;28;20524;-66
2022/01/10 04:37:07;;;;;;;12.45;6.47;;;;;;;2.09;100.00;100317.13;4966189;28;20128;-65
2022/01/10 04:39:50;;;;;;;10.57;6.45;;;;;;;1.94;100.00;100328.56;4994899;28;20072;-69
2022/01/10 04:42:34;;;;;;;;;;;;;;;1.94;100.00;100333.81;4980296;28;20038;-66
2022/01/10 04:45:19;;;;;;;13.18;7.15;;;;;;;1.93;100.00;100326.88;4979861;28;20008;-65
2022/01/10 04:48:03;;;;;;;;;;;;;;;1.94;100.00;100339.09;4979939;28;20530;-65
2022/01/10 04:53:35;;;;;;;13.25;6.88;;;;;;;2.08;100.00;100347.00;4994786;28;20057;-68
2022/01/10 04:56:19;;;;;;;;;;;;;;;2.20;100.00;100353.34;4994848;28;20052;-68
2022/01/10 04:59:03;;;;;;;11.23;6.60;;;;;;;2.08;100.00;100357.53;4993919;28;19921;-64
2022/01/10 05:01:47;;;;;;;;;;;;;;;2.02;100.00;100362.28;4995335;28;20080;-65
2022/01/10 05:04:30;;;;;;;17.50;8.40;;;;;;;1.95;100.00;100380.22;4994169;28;19976;-68
2022/01/10 05:07:14;;;;;;;15.10;8.07;;;;;;;1.91;100.00;100378.69;4979407;28;20177;-67
2022/01/10 05:09:58;;;;;;;16.08;6.82;;;;;;;1.94;100.00;100380.28;4979478;28;20049;-68
2022/01/10 05:12:42;;;;;;;;;;;;;;;1.92;100.00;100387.41;4994514;28;20418;-64
2022/01/10 05:15:26;;;;;;;16.05;10.63;;;;;;;1.92;100.00;100393.53;4994135;28;19933;-67
2022/01/10 05:18:10;;;;;;;;;;;;;;;1.97;100.00;100391.47;4994303;28;20058;-67
2022/01/10 05:20:54;;;;;;;17.38;7.63;;;;;;;2.00;100.00;100399.22;4993980;28;19920;-68
2022/01/10 05:23:38;;;;;;;;;;;;;;;1.98;100.00;100398.44;4994384;28;20073;-68
2022/01/10 05:26:22;;;;;;;15.45;8.05;;;;;;;2.02;100.00;100405.22;4993564;28;20301;-69
2022/01/10 05:29:06;;;;;;;;;;;;;;;2.09;100.00;100403.09;4994338;28;20053;-67
2022/01/10 05:31:50;;;;;;;14.48;8.05;;;;;;;2.05;100.00;100415.56;4979107;28;20407;-64
2022/01/10 05:34:33;;;;;;;12.55;7.60;;;;;;;2.08;100.00;100415.38;4993959;28;20045;-69
2022/01/10 05:37:17;;;;;;;12.85;8.65;;;;;;;2.11;100.00;100419.63;4993645;28;20513;-68
2022/01/10 05:40:02;;;;;;;;;;;;;;;2.13;100.00;100429.13;4993999;28;20045;-68
2022/01/10 05:42:46;;;;;;;14.48;8.40;;;;;;;2.20;100.00;100441.00;4979138;28;20313;-63
2022/01/10 05:45:30;;;;;;;16.25;9.10;;;;;;;2.13;100.00;100436.16;4965599;28;20094;-68
2022/01/10 05:48:21;;;;;;;;;;;;;;;2.18;100.00;100437.56;4993820;28;20104;-69
2022/01/10 05:51:05;;;;;;;13.63;7.38;;;;;;;2.21;100.00;100453.22;4979699;28;20314;-68
2022/01/10 05:53:49;;;;;;;14.95;7.18;;;;;;;2.27;100.00;100454.63;4993711;28;20060;-68
2022/01/10 05:56:37;;;;;;;14.75;8.43;;;;;;;2.13;100.00;100452.78;4993488;28;20073;-68
2022/01/10 05:59:21;;;;;;;15.70;8.13;;;;;;;2.17;100.00;100467.44;4965053;28;20391;-66
2022/01/10 06:02:05;;;;;;;13.35;8.00;;;;;;;2.15;100.00;100464.06;4978737;28;20089;-66
2022/01/10 06:04:48;;;;;;;;;;;;;;;2.10;100.00;100470.50;4993782;28;20057;-64
2022/01/10 06:07:32;;;;;;;12.65;7.43;;;;;;;2.18;100.00;100476.19;4993527;28;19920;-63
2022/01/10 06:10:16;;;;;;;15.02;8.25;;;;;;;2.19;100.00;100480.53;4965052;28;20058;-69
2022/01/10 06:13:00;;;;;;;15.60;7.80;;;;;;;2.21;100.00;100487.41;4981914;28;20112;-66
2022/01/10 06:15:44;;;;;;;;;;;;;;;2.15;100.00;100487.72;4983102;28;20113;-64
2022/01/10 06:18:28;;;;;;;13.45;8.02;;;;;;;2.09;100.00;100498.56;4982592;28;20057;-69
2022/01/10 06:21:12;;;;;;;13.50;7.90;;;;;;;2.15;100.00;100500.88;4997100;28;20045;-66
2022/01/10 06:23:56;;;;;;;;;;;;;;;2.08;100.00;100509.22;4982903;28;20077;-64
2022/01/10 06:26:40;;;;;;;16.42;8.43;;;;;;;2.04;100.00;100511.16;4982318;28;20292;-67
2022/01/10 06:29:24;;;;;;;;;;;;;;;2.10;100.00;100523.09;4982981;28;20057;-69
2022/01/10 06:32:08;;;;;;;16.65;8.07;;;;;;;2.14;100.00;100530.75;4968788;28;20330;-66
2022/01/10 06:34:52;;;;;;;18.38;9.20;;;;;;;2.13;100.00;100534.31;4996864;28;20049;-69
2022/01/10 06:37:37;;;;;;;17.00;8.32;;;;;;;2.16;100.00;100549.91;4982160;28;20483;-66
2022/01/10 06:40:21;;;;;;;17.05;9.48;;;;;;;2.08;100.00;100557.38;4982417;28;20088;-69
2022/01/10 06:43:05;;;;;;;17.65;9.15;;;;;;;2.05;100.00;100554.91;4982235;28;20532;-67
2022/01/10 06:45:48;;;;;;;15.40;8.20;;;;;;;1.99;100.00;100567.56;4982196;28;20509;-68
2022/01/10 06:48:33;;;;;;;;;;;;;;;2.05;100.00;100572.50;4982158;28;20072;-67
2022/01/10 06:51:17;;;;;;;14.20;8.80;;;;;;;2.06;100.00;100580.28;4996965;28;19929;-68
2022/01/10 06:54:01;;;;;;;;;;;;;;;1.99;100.00;100578.91;4997237;28;20058;-63
2022/01/10 06:56:45;;;;;;;20.25;9.35;;;;;;;1.92;100.00;100581.94;4981789;28;19925;-69
2022/01/10 06:59:29;;;;;;;;;;;;;;;1.89;100.00;100588.25;5010842;22;20466;-71
2022/01/10 07:02:13;;;;;;;18.67;9.02;;;;;;;1.95;100.00;100597.59;4981950;28;19924;-71
2022/01/10 07:04:56;;;;;;;;;;;;;;;1.98;100.00;100606.13;4997055;28;20053;-71
2022/01/10 07:07:40;;;;;;;13.38;8.70;;;;;;;2.04;100.00;100608.44;4996387;28;19920;-71
2022/01/10 07:10:24;;;;;;;17.80;9.73;;;;;;;2.09;100.00;100616.09;4996252;28;20533;-71
2022/01/10 07:13:08;;;;;;;18.33;9.55;;;;;;;2.11;100.00;100622.97;4996531;28;20517;-70
2022/01/10 07:15:52;;;;;;;14.75;8.77;;;;;;;2.21;100.00;100632.06;4996144;28;20132;-70
2022/01/10 07:18:36;;;;;;;16.58;8.68;;;;;;;2.24;100.00;100637.16;4996083;28;20061;-71
2022/01/10 07:21:20;;;;;;;;;;;;;;;2.29;100.00;100640.34;4981987;28;20053;-70
2022/01/10 07:24:05;;;;;;;14.80;8.95;;;;;;;2.34;100.00;100654.13;4996178;28;19920;-69
2022/01/10 07:26:50;;;;;;;13.48;8.20;;;;;;;2.38;100.00;100665.34;4981498;28;20158;-70
2022/01/10 07:29:34;;;;;;;18.00;8.98;;;;;;;2.20;100.00;100672.44;4981345;28;20053;-70
2022/01/10 07:32:19;;;;;;;19.95;9.18;;;;;;;2.21;100.00;100679.41;4981393;28;20136;-70
2022/01/10 07:35:03;;;;;;;15.68;8.85;;;;;;;2.19;100.00;100689.13;4995873;28;20046;-70
2022/01/10 07:37:47;;;;;;;16.40;8.32;;;;;;;2.10;100.00;100687.00;4981005;28;20134;-71
2022/01/10 07:40:31;;;;;;;16.27;9.32;;;;;;;2.15;100.00;100692.88;4995887;28;20053;-71
2022/01/10 07:43:15;;;;;;;;;;;;;;;2.18;100.00;100695.31;4996174;28;20061;-70
2022/01/10 07:45:59;;;;;;;15.47;8.90;;;;;;;2.21;100.00;100703.06;4995986;28;19921;-70
2022/01/10 07:48:44;;;;;;;15.23;8.10;;;;;;;2.17;100.00;100704.16;4980826;28;20076;-71
2022/01/10 07:51:28;;;;;;;13.75;8.00;;;;;;;2.17;100.00;100713.84;4980945;28;20410;-70
2022/01/10 07:54:12;;;;;;;12.55;8.07;;;;;;;2.15;100.00;100711.28;4995829;28;20216;-70
2022/01/10 07:56:56;;;;;;;12.65;7.20;;;;;;;2.24;100.00;100723.09;4980944;28;20073;-71
2022/01/10 07:59:40;;;;;;;12.25;6.90;;;;;;;2.30;100.00;100731.53;4980515;28;20062;-70
2022/01/10 08:02:25;;;;;;;15.77;7.47;;;;;;;2.34;100.00;100726.91;4995755;28;20100;-70
2022/01/10 08:05:10;;;;;;;13.15;7.80;;;;;;;2.33;100.00;100726.09;4981177;28;20566;-68
2022/01/10 08:07:54;;;;;;;13.57;6.90;;;;;;;2.35;100.00;100729.47;4980988;28;20045;-70
2022/01/10 08:10:38;;;;;;;;;;;;;;;2.40;100.00;100737.97;4995755;28;20135;-70
2022/01/10 08:13:23;;;;;;;14.95;7.50;;;;;;;2.49;100.00;100742.75;4980729;28;19921;-71
2022/01/10 08:16:07;;;;;;;11.75;7.13;;;;;;;2.56;100.00;100746.75;4995387;28;20536;-71
2022/01/10 08:18:51;;;;;;;11.90;7.75;;;;;;;2.67;100.00;100754.91;4966982;28;20049;-70
2022/01/10 08:21:35;;;;;;;;;;;;;;;2.59;100.00;100757.97;4995421;28;20425;-70
2022/01/10 08:24:19;;;;;;;15.60;8.10;;;;;;;2.49;100.00;100767.28;4980455;28;20023;-70
2022/01/10 08:27:03;;;;;;;14.85;7.38;;;;;;;2.49;100.00;100769.06;4994922;28;20460;-71
2022/01/10 08:29:50;;;;;;;16.05;8.80;;;;;;;2.54;100.00;100777.56;4995167;28;20050;-71
2022/01/10 08:32:34;;;;;;;14.25;7.28;;;;;;;2.50;100.00;100781.28;4980737;28;20454;-70
2022/01/10 08:35:20;;;;;;;11.90;7.10;;;;;;;2.67;100.00;100783.88;4994217;28;20049;-71
2022/01/10 08:38:04;;;;;;;12.82;7.10;;;;;;;2.84;100.00;100799.63;4979903;28;20556;-70
2022/01/10 08:40:48;;;;;;;;;;;;;;;2.96;100.00;100796.31;4980623;28;20084;-71
2022/01/10 08:43:32;;;;;;;12.98;6.63;;;;;;;3.12;100.00;100797.19;4979783;28;19920;-70
2022/01/10 08:46:16;;;;;;;19.80;7.93;;;;;;;3.27;100.00;100797.19;4980023;28;20056;-71
2022/01/10 08:49:00;;;;;;;15.73;9.00;;;;;;;3.46;100.00;100800.44;4994606;28;20053;-70
2022/01/10 08:51:45;;;;;;;;;;;;;;;3.72;100.00;100804.22;4980087;28;20157;-70
2022/01/10 08:54:29;;;;;;;15.38;8.85;;;;;;;3.73;100.00;100806.78;4979892;28;19921;-70
2022/01/10 08:57:13;;;;;;;;;;;;;;;3.69;100.00;100801.78;4979900;28;20085;-71
2022/01/10 08:59:57;;;;;;;18.93;10.00;;;;;;;3.85;100.00;100810.53;4979270;28;19921;-70
2022/01/10 09:02:40;;;;;;;;;;;;;;;4.46;100.00;100808.56;4979988;28;20174;-70
2022/01/10 09:05:24;;;;;;;11.17;7.20;;;;;;;4.79;100.00;100819.72;4979700;28;19929;-70
2022/01/10 09:08:08;;;;;;;;;;;;;;;5.19;100.00;100817.97;4980078;28;20100;-71
2022/01/10 09:10:54;;;;;;;12.77;7.50;;;;;;;6.01;100.00;100814.31;4979609;28;19968;-71
2022/01/10 09:13:38;;;;;;;13.93;7.72;;;;;;;6.28;100.00;100830.97;4979980;28;20441;-71
2022/01/10 09:16:22;;;;;;;12.00;7.22;;;;;;;6.25;100.00;100831.19;4965869;28;20057;-71
2022/01/10 09:19:06;;;;;;;10.75;6.82;;;;;;;5.82;100.00;100835.00;4993927;28;20117;-70
2022/01/10 09:21:50;;;;;;;13.18;7.15;;;;;;;5.49;100.00;100836.31;4994074;28;20414;-71
2022/01/10 09:24:35;;;;;;;8.85;6.47;;;;;;;5.12;100.00;100853.66;4994035;28;20521;-70
2022/01/10 09:27:19;;;;;;;14.00;7.38;;;;;;;5.11;100.00;100862.53;4993981;28;20045;-71
2022/01/10 09:30:04;;;;;;;13.13;6.80;;;;;;;5.05;100.00;100868.19;4994023;28;20110;-70
2022/01/10 09:32:48;;;;;;;12.95;7.05;;;;;;;4.91;100.00;100872.66;4993750;28;20108;-71
2022/01/10 09:35:32;;;;;;;11.80;5.90;;;;;;;4.76;100.00;100878.84;4979396;28;20060;-70
2022/01/10 09:38:16;;;;;;;12.65;7.20;;;;;;;4.71;100.00;100877.44;4978811;28;20057;-71
2022/01/10 09:40:59;;;;;;;16.38;6.95;;;;;;;4.61;100.00;100885.06;4965333;28;20406;-71
2022/01/10 09:44:04;;;;;;;16.90;8.40;;;;;;;4.69;100.00;100882.78;4965374;28;20134;-71
2022/01/10 09:46:48;;;;;;;;;;;;;;;4.50;100.00;100886.66;4993712;28;20065;-70
2022/01/10 09:49:32;;;;;;;14.40;7.95;;;;;;;4.61;100.00;100889.50;4978664;28;19925;-70
2022/01/10 09:52:16;;;;;;;15.35;7.43;;;;;;;4.66;100.00;100895.38;4993532;28;20092;-70
2022/01/10 09:54:59;;;;;;;;;;;;;;;4.82;100.00;100893.47;4994012;28;20134;-71
2022/01/10 09:57:44;;;;;;;13.57;7.10;;;;;;;5.14;100.00;100899.31;4978898;28;19925;-70
2022/01/10 10:00:27;;;;;;;13.65;8.23;;;;;;;5.81;100.00;100902.09;4978175;28;20061;-70
2022/01/10 10:03:11;;;;;;;11.60;6.07;;;;;;;6.70;100.00;100909.34;4978796;28;20054;-70
2022/01/10 10:05:56;;;;;;;13.68;6.35;;;;;;;7.79;100.00;100898.78;4978513;28;20172;-70
2022/01/10 10:08:40;;;;;;;7.72;5.55;;;;;;;9.99;95.09;100902.72;4978737;28;20049;-67
2022/01/10 10:11:36;;;;;;;13.38;7.85;;;;;;;11.18;81.12;100899.56;4993472;28;20574;-68
2022/01/10 10:14:22;;;;;;;16.38;7.60;;;;;;;11.65;75.11;100906.13;4964788;28;20046;-67
2022/01/10 10:17:12;;;;;;;12.23;7.20;;;;;;;13.90;69.09;100890.94;4978455;28;20413;-67
2022/01/10 10:19:56;;;;;;;11.90;6.40;;;;;;;15.29;58.42;100902.59;4993116;28;20466;-68
2022/01/10 10:22:40;;;;;;;;;;;;;;;16.52;53.11;100899.03;4978986;28;20061;-67
2022/01/10 10:25:25;;;;;;;10.65;5.70;;;;;;;17.82;54.76;100899.50;4964824;28;19921;-67
2022/01/10 10:28:09;;;;;;;12.52;6.35;;;;;;;17.54;49.31;100911.75;4964837;28;20044;-68
2022/01/10 10:30:57;;;;;;;11.23;6.18;;;;;;;18.88;46.95;100910.31;4978778;28;20049;-67
2022/01/10 10:33:52;;;;;;;9.27;6.32;;;;;;;19.01;43.48;100910.53;4978416;28;20049;-68
2022/01/10 10:36:36;;;;;;;;;;;;;;;16.64;44.21;100913.00;4978949;28;20521;-67
2022/01/10 10:39:22;;;;;;;11.32;5.90;;;;;;;17.64;43.65;100914.22;4993071;28;19921;-68
2022/01/10 10:42:11;;;;;;;14.73;8.30;;;;;;;17.84;45.74;100919.06;4993084;28;20045;-68
2022/01/10 10:44:56;;;;;;;14.32;7.38;;;;;;;19.44;46.81;100918.75;4964680;28;20536;-68
2022/01/10 10:47:43;;;;;;;48.70;43.55;;;;;;;20.45;42.44;100920.53;4993075;28;20112;-67
2022/01/10 10:50:29;;;;;;;14.18;6.75;;;;;;;21.11;41.83;100920.13;4978306;28;20520;-67
2022/01/10 10:53:14;;;;;;;10.18;6.22;;;;;;;21.48;40.46;100923.31;4992815;28;20053;-68
2022/01/10 10:56:01;;;;;;;10.23;6.40;;;;;;;22.02;39.86;100924.28;4978244;28;20133;-68
2022/01/10 10:58:45;;;;;;;12.27;7.50;;;;;;;22.10;37.07;100926.00;4980291;28;20124;-68
2022/01/10 11:01:29;;;;;;;11.73;6.70;;;;;;;22.08;39.33;100923.50;4996607;28;20130;-68
2022/01/10 11:04:13;;;;;;;15.75;7.15;;;;;;;22.38;34.47;100935.72;4968420;28;20208;-68
2022/01/10 11:06:58;;;;;;;10.13;6.00;;;;;;;21.30;37.14;100931.13;4996314;28;20418;-67
2022/01/10 11:09:42;;;;;;;13.15;6.95;;;;;;;21.98;34.84;100944.75;4996252;28;20128;-67
2022/01/10 11:12:28;;;;;;;13.40;7.22;;;;;;;21.38;34.04;100947.25;4981463;28;20050;-67
2022/01/10 11:15:12;;;;;;;15.55;7.63;;;;;;;21.14;37.81;100951.44;4981902;28;20076;-68
2022/01/10 11:18:01;;;;;;;16.45;7.57;;;;;;;21.58;36.46;100958.25;4981587;28;20045;-68
2022/01/10 11:20:47;;;;;;;13.68;7.00;;;;;;;21.85;37.44;100962.84;4996107;28;20080;-68
2022/01/10 11:23:32;;;;;;;12.43;7.32;;;;;;;21.93;37.98;100963.53;4981320;28;20139;-68
2022/01/10 11:26:17;;;;;;;14.52;7.15;;;;;;;21.03;36.42;100962.81;4981485;28;20053;-68
2022/01/10 11:29:02;;;;;;;13.75;7.72;;;;;;;20.49;36.43;100970.56;4981315;28;20053;-67
2022/01/10 11:31:46;;;;;;;10.93;7.65;;;;;;;21.23;35.39;100971.97;4996109;28;20045;-66
2022/01/10 11:34:30;;;;;;;11.70;7.18;;;;;;;21.41;35.28;100978.56;4981037;28;20065;-68
2022/01/10 11:37:15;;;;;;;13.65;7.38;;;;;;;20.94;37.76;100975.66;4995846;28;20073;-68
2022/01/10 11:39:58;;;;;;;15.48;8.23;;;;;;;21.28;39.23;100981.19;4995702;28;20489;-68
2022/01/10 11:42:54;;;;;;;13.60;7.38;;;;;;;20.60;36.90;100982.78;4980756;28;20057;-68
2022/01/10 11:45:44;;;;;;;16.25;8.57;;;;;;;19.99;39.05;100983.22;4995901;28;20049;-67
2022/01/10 11:48:44;;;;;;;13.07;7.80;;;;;;;20.78;40.19;100975.88;4967788;28;20092;-67
2022/01/10 11:51:37;;;;;;;12.73;7.10;;;;;;;21.12;38.84;100977.91;4981146;28;20045;-68
2022/01/10 11:54:26;;;;;;;13.65;7.28;;;;;;;20.93;39.80;100981.28;4995613;28;20478;-67
2022/01/10 11:57:14;;;;;;;15.00;7.95;;;;;;;20.91;38.82;100980.66;4981038;28;20406;-68
2022/01/10 12:00:08;;;;;;;13.13;7.20;;;;;;;20.39;39.06;100991.69;4980792;28;20049;-68
2022/01/10 12:02:53;;;;;;;;;;;;;;;19.61;39.69;101000.56;4995990;28;20125;-68
2022/01/10 12:05:36;;;;;;;;;;;;;;;18.94;38.84;100996.88;4995889;28;19921;-67
2022/01/10 12:08:20;;;;;;;12.82;7.63;;;;;;;18.23;40.86;100994.59;4980205;28;19964;-67
2022/01/10 12:11:04;;;;;;;;;;;;;;;17.73;40.72;101002.19;4994899;28;20049;-69
2022/01/10 12:13:49;;;;;;;14.60;8.43;;;;;;;16.52;43.42;101004.00;4980353;28;20044;-69
2022/01/10 12:16:34;;;;;;;15.45;8.07;;;;;;;16.86;45.41;101006.56;4980854;28;20112;-69
2022/01/10 12:19:18;;;;;;;13.70;8.27;;;;;;;17.37;44.86;101017.06;4966827;28;20054;-67
2022/01/10 12:22:06;;;;;;;15.23;8.38;;;;;;;17.17;43.51;101016.53;4995234;28;20112;-68
2022/01/10 12:24:50;;;;;;;15.27;7.72;;;;;;;16.93;42.85;101024.63;4980841;28;20057;-67
2022/01/10 12:27:35;;;;;;;16.92;8.80;;;;;;;16.30;46.39;101034.19;4980141;28;20057;-69
2022/01/10 12:30:20;;;;;;;11.20;7.93;;;;;;;17.37;45.34;101031.41;4979905;28;20065;-68
2022/01/10 12:33:04;;;;;;;15.90;9.20;;;;;;;18.01;44.72;101039.38;4980358;28;20124;-69
2022/01/10 12:35:48;;;;;;;16.42;9.23;;;;;;;18.38;42.90;101047.69;4994954;28;20054;-69
2022/01/10 12:38:32;;;;;;;13.20;8.13;;;;;;;18.47;43.86;101043.94;4979810;28;20057;-69
2022/01/10 12:41:16;;;;;;;17.95;8.73;;;;;;;18.31;43.22;101052.09;4980064;28;20435;-69
2022/01/10 12:44:00;;;;;;;;;;;;;;;17.60;43.78;101053.94;4980350;28;20375;-68
2022/01/10 12:46:44;;;;;;;27.50;15.18;;;;;;;16.27;44.64;101069.47;4979785;28;19940;-68
2022/01/10 12:49:27;;;;;;;;;;;;;;;14.87;46.91;101062.66;4980241;28;20061;-68
2022/01/10 12:52:11;;;;;;;12.95;8.05;;;;;;;13.97;51.50;101071.63;4979560;28;19925;-69
2022/01/10 12:54:55;;;;;;;;;;;;;;;13.18;52.58;101067.56;4995252;28;20172;-69
2022/01/10 12:57:39;;;;;;;18.33;10.25;;;;;;;12.81;59.47;101079.03;4994567;28;20010;-69
2022/01/10 13:00:23;;;;;;;;;;;;;;;12.90;59.30;101072.84;4994511;28;20057;-69
2022/01/10 13:03:07;;;;;;;14.38;8.52;;;;;;;13.39;53.74;101076.28;4979659;28;20290;-68
2022/01/10 13:05:51;;;;;;;17.58;8.95;;;;;;;13.71;52.56;101073.25;4979745;28;20040;-68
2022/01/10 13:08:39;;;;;;;14.82;8.68;;;;;;;14.36;52.79;101089.25;4994246;28;20097;-68